sensor_id;sensor_type;location;lat;lon;timestamp;P1;durP1;ratioP1;P2;durP2;ratioP2
15114;SDS011;7658;51.456;7.622;2023-04-03T00:00:22;13.37;;;11.90;;
15114;SDS011;7658;51.456;7.622;2023-04-03T00:02:48;11.83;;;10.67;;
15114;SDS011;7658;51.456;7.622;2023-04-03T00:05:14;12.20;;;9.60;;
15114;SDS011;7658;51.456;7.622;2023-04-03T00:07:40;11.30;;;10.07;;
15114;SDS011;7658;51.456;7.622;2023-04-03T00:10:06;11.20;;;10.20;;
15114;SDS011;7658;51.456;7.622;2023-04-03T00:12:32;11.40;;;10.20;;
15114;SDS011;7658;51.456;7.622;2023-04-03T00:14:58;11.37;;;10.20;;
15114;SDS011;7658;51.456;7.622;2023-04-03T00:17:24;10.57;;;9.47;;
15114;SDS011;7658;51.456;7.622;2023-04-03T00:19:50;11.17;;;10.07;;
15114;SDS011;7658;51.456;7.622;2023-04-03T00:22:15;10.50;;;9.50;;
15114;SDS011;7658;51.456;7.622;2023-04-03T00:24:41;11.60;;;10.40;;
15114;SDS011;7658;51.456;7.622;2023-04-03T00:27:07;10.47;;;9.57;;
15114;SDS011;7658;51.456;7.622;2023-04-03T00:29:33;13.17;;;10.27;;
15114;SDS011;7658;51.456;7.622;2023-04-03T00:31:58;11.77;;;9.80;;
15114;SDS011;7658;51.456;7.622;2023-04-03T00:34:24;12.00;;;10.20;;
15114;SDS011;7658;51.456;7.622;2023-04-03T00:36:50;11.33;;;10.23;;
15114;SDS011;7658;51.456;7.622;2023-04-03T00:39:16;12.00;;;10.90;;
15114;SDS011;7658;51.456;7.622;2023-04-03T00:41:42;11.30;;;10.20;;
15114;SDS011;7658;51.456;7.622;2023-04-03T00:44:20;11.37;;;10.23;;
15114;SDS011;7658;51.456;7.622;2023-04-03T00:46:47;10.50;;;9.60;;
15114;SDS011;7658;51.456;7.622;2023-04-03T00:49:13;11.30;;;10.40;;
15114;SDS011;7658;51.456;7.622;2023-04-03T00:51:39;11.37;;;10.23;;
15114;SDS011;7658;51.456;7.622;2023-04-03T00:54:05;11.67;;;10.57;;
15114;SDS011;7658;51.456;7.622;2023-04-03T00:56:32;11.90;;;10.70;;
15114;SDS011;7658;51.456;7.622;2023-04-03T00:59:00;11.37;;;10.27;;
15114;SDS011;7658;51.456;7.622;2023-04-03T01:01:36;11.60;;;10.50;;
15114;SDS011;7658;51.456;7.622;2023-04-03T01:04:02;12.97;;;11.67;;
15114;SDS011;7658;51.456;7.622;2023-04-03T01:06:31;13.30;;;11.90;;
15114;SDS011;7658;51.456;7.622;2023-04-03T01:09:00;12.67;;;11.57;;
15114;SDS011;7658;51.456;7.622;2023-04-03T01:11:26;13.10;;;11.70;;
15114;SDS011;7658;51.456;7.622;2023-04-03T01:13:53;12.93;;;11.70;;
15114;SDS011;7658;51.456;7.622;2023-04-03T01:16:18;13.17;;;11.83;;
15114;SDS011;7658;51.456;7.622;2023-04-03T01:18:44;12.97;;;11.67;;
15114;SDS011;7658;51.456;7.622;2023-04-03T01:27:18;11.50;;;10.50;;
15114;SDS011;7658;51.456;7.622;2023-04-03T01:29:44;14.33;;;11.13;;
15114;SDS011;7658;51.456;7.622;2023-04-03T01:32:10;11.40;;;10.23;;
15114;SDS011;7658;51.456;7.622;2023-04-03T01:34:36;12.20;;;10.97;;
15114;SDS011;7658;51.456;7.622;2023-04-03T01:37:02;11.73;;;10.53;;
15114;SDS011;7658;51.456;7.622;2023-04-03T01:39:28;12.77;;;11.40;;
15114;SDS011;7658;51.456;7.622;2023-04-03T01:41:53;11.87;;;10.53;;
15114;SDS011;7658;51.456;7.622;2023-04-03T01:44:19;12.57;;;11.37;;
15114;SDS011;7658;51.456;7.622;2023-04-03T01:46:45;12.20;;;11.03;;
15114;SDS011;7658;51.456;7.622;2023-04-03T01:49:11;15.70;;;11.00;;
15114;SDS011;7658;51.456;7.622;2023-04-03T01:51:37;12.20;;;11.00;;
15114;SDS011;7658;51.456;7.622;2023-04-03T01:54:03;12.57;;;11.37;;
15114;SDS011;7658;51.456;7.622;2023-04-03T01:56:29;13.07;;;11.87;;
15114;SDS011;7658;51.456;7.622;2023-04-03T01:58:55;16.17;;;11.53;;
15114;SDS011;7658;51.456;7.622;2023-04-03T02:01:21;13.37;;;12.17;;
15114;SDS011;7658;51.456;7.622;2023-04-03T02:03:46;13.43;;;10.77;;
15114;SDS011;7658;51.456;7.622;2023-04-03T02:06:12;12.40;;;11.13;;
15114;SDS011;7658;51.456;7.622;2023-04-03T02:08:38;13.00;;;11.63;;
15114;SDS011;7658;51.456;7.622;2023-04-03T02:11:05;14.27;;;10.87;;
15114;SDS011;7658;51.456;7.622;2023-04-03T02:13:31;13.47;;;11.37;;
15114;SDS011;7658;51.456;7.622;2023-04-03T02:15:56;12.00;;;10.70;;
15114;SDS011;7658;51.456;7.622;2023-04-03T02:18:22;13.07;;;10.27;;
15114;SDS011;7658;51.456;7.622;2023-04-03T02:20:48;11.50;;;10.30;;
15114;SDS011;7658;51.456;7.622;2023-04-03T02:23:13;10.90;;;9.80;;
15114;SDS011;7658;51.456;7.622;2023-04-03T02:25:39;13.20;;;11.00;;
15114;SDS011;7658;51.456;7.622;2023-04-03T02:28:05;11.23;;;10.20;;
15114;SDS011;7658;51.456;7.622;2023-04-03T02:30:31;10.53;;;9.43;;
15114;SDS011;7658;51.456;7.622;2023-04-03T02:32:57;12.57;;;11.37;;
15114;SDS011;7658;51.456;7.622;2023-04-03T02:35:23;12.57;;;11.20;;
15114;SDS011;7658;51.456;7.622;2023-04-03T02:37:49;11.73;;;10.27;;
15114;SDS011;7658;51.456;7.622;2023-04-03T02:40:16;10.93;;;9.60;;
15114;SDS011;7658;51.456;7.622;2023-04-03T02:42:42;12.20;;;9.80;;
15114;SDS011;7658;51.456;7.622;2023-04-03T02:45:08;9.93;;;8.90;;
15114;SDS011;7658;51.456;7.622;2023-04-03T02:47:34;9.33;;;8.43;;
15114;SDS011;7658;51.456;7.622;2023-04-03T02:50:00;8.87;;;8.00;;
15114;SDS011;7658;51.456;7.622;2023-04-03T02:52:26;10.97;;;8.30;;
15114;SDS011;7658;51.456;7.622;2023-04-03T02:54:51;9.23;;;8.30;;
15114;SDS011;7658;51.456;7.622;2023-04-03T02:57:17;9.27;;;8.07;;
15114;SDS011;7658;51.456;7.622;2023-04-03T02:59:44;8.60;;;7.80;;
15114;SDS011;7658;51.456;7.622;2023-04-03T03:02:10;8.80;;;8.07;;
15114;SDS011;7658;51.456;7.622;2023-04-03T03:04:36;10.43;;;8.13;;
15114;SDS011;7658;51.456;7.622;2023-04-03T03:07:02;8.73;;;7.73;;
15114;SDS011;7658;51.456;7.622;2023-04-03T03:09:28;7.67;;;7.07;;
15114;SDS011;7658;51.456;7.622;2023-04-03T03:11:54;8.23;;;7.53;;
15114;SDS011;7658;51.456;7.622;2023-04-03T03:14:21;8.80;;;7.93;;
15114;SDS011;7658;51.456;7.622;2023-04-03T03:16:47;8.83;;;7.70;;
15114;SDS011;7658;51.456;7.622;2023-04-03T03:19:12;8.67;;;7.83;;
15114;SDS011;7658;51.456;7.622;2023-04-03T03:21:38;7.87;;;7.27;;
15114;SDS011;7658;51.456;7.622;2023-04-03T03:24:04;13.20;;;8.30;;
15114;SDS011;7658;51.456;7.622;2023-04-03T03:26:30;10.50;;;7.80;;
15114;SDS011;7658;51.456;7.622;2023-04-03T03:28:56;8.70;;;7.77;;
15114;SDS011;7658;51.456;7.622;2023-04-03T03:31:22;12.37;;;7.77;;
15114;SDS011;7658;51.456;7.622;2023-04-03T03:33:47;12.07;;;7.57;;
15114;SDS011;7658;51.456;7.622;2023-04-03T03:36:13;7.70;;;7.00;;
15114;SDS011;7658;51.456;7.622;2023-04-03T03:38:39;7.60;;;6.80;;
15114;SDS011;7658;51.456;7.622;2023-04-03T03:41:05;9.47;;;7.67;;
15114;SDS011;7658;51.456;7.622;2023-04-03T03:43:31;9.40;;;7.27;;
15114;SDS011;7658;51.456;7.622;2023-04-03T03:45:57;8.50;;;7.67;;
15114;SDS011;7658;51.456;7.622;2023-04-03T03:48:23;8.20;;;7.43;;
15114;SDS011;7658;51.456;7.622;2023-04-03T03:50:49;11.67;;;8.00;;
15114;SDS011;7658;51.456;7.622;2023-04-03T03:53:15;8.23;;;7.50;;
15114;SDS011;7658;51.456;7.622;2023-04-03T03:55:41;7.83;;;7.23;;
15114;SDS011;7658;51.456;7.622;2023-04-03T03:58:07;8.07;;;7.27;;
15114;SDS011;7658;51.456;7.622;2023-04-03T04:00:32;8.10;;;7.50;;
15114;SDS011;7658;51.456;7.622;2023-04-03T04:02:58;9.47;;;7.30;;
15114;SDS011;7658;51.456;7.622;2023-04-03T04:05:24;8.47;;;7.77;;
15114;SDS011;7658;51.456;7.622;2023-04-03T04:07:50;7.60;;;7.00;;
15114;SDS011;7658;51.456;7.622;2023-04-03T04:10:16;7.80;;;7.20;;
15114;SDS011;7658;51.456;7.622;2023-04-03T04:12:42;9.10;;;8.27;;
15114;SDS011;7658;51.456;7.622;2023-04-03T04:15:08;9.37;;;7.93;;
15114;SDS011;7658;51.456;7.622;2023-04-03T04:17:34;9.47;;;8.40;;
15114;SDS011;7658;51.456;7.622;2023-04-03T04:20:00;12.90;;;8.47;;
15114;SDS011;7658;51.456;7.622;2023-04-03T04:22:27;8.83;;;8.10;;
15114;SDS011;7658;51.456;7.622;2023-04-03T04:24:53;8.40;;;7.70;;
15114;SDS011;7658;51.456;7.622;2023-04-03T04:27:19;9.13;;;7.63;;
15114;SDS011;7658;51.456;7.622;2023-04-03T04:29:45;8.77;;;7.50;;
15114;SDS011;7658;51.456;7.622;2023-04-03T04:32:10;9.40;;;8.50;;
15114;SDS011;7658;51.456;7.622;2023-04-03T04:34:36;8.60;;;7.80;;
15114;SDS011;7658;51.456;7.622;2023-04-03T04:37:02;11.47;;;7.90;;
15114;SDS011;7658;51.456;7.622;2023-04-03T04:39:28;7.97;;;7.27;;
15114;SDS011;7658;51.456;7.622;2023-04-03T04:41:53;11.77;;;7.80;;
15114;SDS011;7658;51.456;7.622;2023-04-03T04:44:19;10.83;;;7.83;;
15114;SDS011;7658;51.456;7.622;2023-04-03T04:46:45;8.93;;;8.00;;
15114;SDS011;7658;51.456;7.622;2023-04-03T04:49:11;8.33;;;7.53;;
15114;SDS011;7658;51.456;7.622;2023-04-03T04:51:37;8.43;;;7.73;;
15114;SDS011;7658;51.456;7.622;2023-04-03T04:54:03;8.40;;;7.60;;
15114;SDS011;7658;51.456;7.622;2023-04-03T04:56:28;8.73;;;7.60;;
15114;SDS011;7658;51.456;7.622;2023-04-03T04:58:54;10.13;;;8.27;;
15114;SDS011;7658;51.456;7.622;2023-04-03T05:01:20;8.97;;;8.10;;
15114;SDS011;7658;51.456;7.622;2023-04-03T05:03:46;8.93;;;8.03;;
15114;SDS011;7658;51.456;7.622;2023-04-03T05:06:13;8.37;;;7.47;;
15114;SDS011;7658;51.456;7.622;2023-04-03T05:08:38;8.73;;;7.93;;
15114;SDS011;7658;51.456;7.622;2023-04-03T05:11:04;11.07;;;8.53;;
15114;SDS011;7658;51.456;7.622;2023-04-03T05:13:30;10.43;;;8.30;;
15114;SDS011;7658;51.456;7.622;2023-04-03T05:15:56;8.70;;;7.80;;
15114;SDS011;7658;51.456;7.622;2023-04-03T05:18:21;11.13;;;7.90;;
15114;SDS011;7658;51.456;7.622;2023-04-03T05:20:50;11.47;;;7.80;;
15114;SDS011;7658;51.456;7.622;2023-04-03T05:23:16;8.40;;;7.57;;
15114;SDS011;7658;51.456;7.622;2023-04-03T05:25:42;13.73;;;8.03;;
15114;SDS011;7658;51.456;7.622;2023-04-03T05:28:10;10.17;;;8.30;;
15114;SDS011;7658;51.456;7.622;2023-04-03T05:30:36;9.00;;;8.03;;
15114;SDS011;7658;51.456;7.622;2023-04-03T05:33:02;10.93;;;8.40;;
15114;SDS011;7658;51.456;7.622;2023-04-03T05:35:28;11.03;;;7.63;;
15114;SDS011;7658;51.456;7.622;2023-04-03T05:37:54;11.27;;;7.83;;
15114;SDS011;7658;51.456;7.622;2023-04-03T05:40:19;10.20;;;8.47;;
15114;SDS011;7658;51.456;7.622;2023-04-03T05:42:45;12.30;;;8.20;;
15114;SDS011;7658;51.456;7.622;2023-04-03T05:45:11;9.30;;;8.23;;
15114;SDS011;7658;51.456;7.622;2023-04-03T05:47:37;9.87;;;7.90;;
15114;SDS011;7658;51.456;7.622;2023-04-03T05:50:03;10.67;;;8.00;;
15114;SDS011;7658;51.456;7.622;2023-04-03T05:52:30;9.97;;;8.93;;
15114;SDS011;7658;51.456;7.622;2023-04-03T05:55:05;8.80;;;7.90;;
15114;SDS011;7658;51.456;7.622;2023-04-03T05:57:31;10.47;;;8.87;;
15114;SDS011;7658;51.456;7.622;2023-04-03T05:59:57;10.47;;;9.20;;
15114;SDS011;7658;51.456;7.622;2023-04-03T06:02:23;10.57;;;7.87;;
15114;SDS011;7658;51.456;7.622;2023-04-03T06:04:50;13.03;;;8.33;;
15114;SDS011;7658;51.456;7.622;2023-04-03T06:07:20;15.80;;;8.87;;
15114;SDS011;7658;51.456;7.622;2023-04-03T06:09:48;10.73;;;7.87;;
15114;SDS011;7658;51.456;7.622;2023-04-03T06:12:16;8.87;;;8.07;;
15114;SDS011;7658;51.456;7.622;2023-04-03T06:14:43;9.70;;;8.20;;
15114;SDS011;7658;51.456;7.622;2023-04-03T06:17:09;14.13;;;8.40;;
15114;SDS011;7658;51.456;7.622;2023-04-03T06:19:35;11.50;;;8.50;;
15114;SDS011;7658;51.456;7.622;2023-04-03T06:22:01;9.67;;;8.67;;
15114;SDS011;7658;51.456;7.622;2023-04-03T06:24:28;8.37;;;7.67;;
15114;SDS011;7658;51.456;7.622;2023-04-03T06:26:54;9.20;;;7.90;;
15114;SDS011;7658;51.456;7.622;2023-04-03T06:29:19;10.60;;;8.73;;
15114;SDS011;7658;51.456;7.622;2023-04-03T06:31:46;10.90;;;7.80;;
15114;SDS011;7658;51.456;7.622;2023-04-03T06:34:12;10.90;;;8.33;;
15114;SDS011;7658;51.456;7.622;2023-04-03T06:36:39;11.07;;;8.03;;
15114;SDS011;7658;51.456;7.622;2023-04-03T06:39:05;8.60;;;7.83;;
15114;SDS011;7658;51.456;7.622;2023-04-03T06:41:31;11.40;;;8.10;;
15114;SDS011;7658;51.456;7.622;2023-04-03T06:43:58;12.13;;;8.07;;
15114;SDS011;7658;51.456;7.622;2023-04-03T06:46:24;13.40;;;8.00;;
15114;SDS011;7658;51.456;7.622;2023-04-03T06:48:52;8.97;;;7.23;;
15114;SDS011;7658;51.456;7.622;2023-04-03T06:51:19;9.00;;;8.07;;
15114;SDS011;7658;51.456;7.622;2023-04-03T06:53:52;9.03;;;7.40;;
15114;SDS011;7658;51.456;7.622;2023-04-03T06:56:19;8.70;;;7.87;;
15114;SDS011;7658;51.456;7.622;2023-04-03T06:58:46;13.50;;;7.93;;
15114;SDS011;7658;51.456;7.622;2023-04-03T07:01:12;8.50;;;7.57;;
15114;SDS011;7658;51.456;7.622;2023-04-03T07:03:40;9.23;;;7.40;;
15114;SDS011;7658;51.456;7.622;2023-04-03T07:06:06;7.83;;;7.10;;
15114;SDS011;7658;51.456;7.622;2023-04-03T07:08:34;8.17;;;7.47;;
15114;SDS011;7658;51.456;7.622;2023-04-03T07:11:00;9.80;;;7.73;;
15114;SDS011;7658;51.456;7.622;2023-04-03T07:13:26;9.03;;;8.17;;
15114;SDS011;7658;51.456;7.622;2023-04-03T07:15:52;8.10;;;7.40;;
15114;SDS011;7658;51.456;7.622;2023-04-03T07:18:18;12.47;;;7.50;;
15114;SDS011;7658;51.456;7.622;2023-04-03T07:20:44;10.10;;;7.00;;
15114;SDS011;7658;51.456;7.622;2023-04-03T07:23:10;8.53;;;6.77;;
15114;SDS011;7658;51.456;7.622;2023-04-03T07:25:36;8.07;;;7.27;;
15114;SDS011;7658;51.456;7.622;2023-04-03T07:28:07;13.30;;;7.17;;
15114;SDS011;7658;51.456;7.622;2023-04-03T07:30:33;7.80;;;7.07;;
15114;SDS011;7658;51.456;7.622;2023-04-03T07:32:59;9.13;;;7.67;;
15114;SDS011;7658;51.456;7.622;2023-04-03T07:35:25;10.20;;;7.43;;
15114;SDS011;7658;51.456;7.622;2023-04-03T07:37:52;8.93;;;7.20;;
15114;SDS011;7658;51.456;7.622;2023-04-03T07:40:18;9.63;;;6.90;;
15114;SDS011;7658;51.456;7.622;2023-04-03T07:42:44;8.00;;;7.20;;
15114;SDS011;7658;51.456;7.622;2023-04-03T07:45:10;8.23;;;7.30;;
15114;SDS011;7658;51.456;7.622;2023-04-03T07:47:35;7.97;;;7.17;;
15114;SDS011;7658;51.456;7.622;2023-04-03T07:50:01;8.40;;;6.00;;
15114;SDS011;7658;51.456;7.622;2023-04-03T07:52:27;7.53;;;6.90;;
15114;SDS011;7658;51.456;7.622;2023-04-03T07:54:53;8.67;;;7.03;;
15114;SDS011;7658;51.456;7.622;2023-04-03T07:57:18;8.17;;;7.03;;
15114;SDS011;7658;51.456;7.622;2023-04-03T07:59:44;7.43;;;6.73;;
15114;SDS011;7658;51.456;7.622;2023-04-03T08:02:10;8.73;;;6.93;;
15114;SDS011;7658;51.456;7.622;2023-04-03T08:04:37;7.47;;;6.83;;
15114;SDS011;7658;51.456;7.622;2023-04-03T08:07:02;9.37;;;7.03;;
15114;SDS011;7658;51.456;7.622;2023-04-03T08:09:29;9.80;;;6.63;;
15114;SDS011;7658;51.456;7.622;2023-04-03T08:11:54;9.17;;;6.53;;
15114;SDS011;7658;51.456;7.622;2023-04-03T08:14:20;10.03;;;6.50;;
15114;SDS011;7658;51.456;7.622;2023-04-03T08:16:46;11.47;;;6.87;;
15114;SDS011;7658;51.456;7.622;2023-04-03T08:19:13;7.77;;;6.43;;
15114;SDS011;7658;51.456;7.622;2023-04-03T08:21:41;8.13;;;6.43;;
15114;SDS011;7658;51.456;7.622;2023-04-03T08:24:07;8.20;;;6.80;;
15114;SDS011;7658;51.456;7.622;2023-04-03T08:26:34;7.53;;;6.80;;
15114;SDS011;7658;51.456;7.622;2023-04-03T08:29:00;8.70;;;6.47;;
15114;SDS011;7658;51.456;7.622;2023-04-03T08:31:26;11.43;;;6.80;;
15114;SDS011;7658;51.456;7.622;2023-04-03T08:33:53;8.43;;;6.33;;
15114;SDS011;7658;51.456;7.622;2023-04-03T08:36:22;13.03;;;7.37;;
15114;SDS011;7658;51.456;7.622;2023-04-03T08:38:51;12.83;;;7.50;;
15114;SDS011;7658;51.456;7.622;2023-04-03T08:41:20;8.80;;;7.00;;
15114;SDS011;7658;51.456;7.622;2023-04-03T08:49:06;12.50;;;6.27;;
15114;SDS011;7658;51.456;7.622;2023-04-03T08:51:41;7.70;;;6.90;;
15114;SDS011;7658;51.456;7.622;2023-04-03T08:54:20;6.77;;;6.20;;
15114;SDS011;7658;51.456;7.622;2023-04-03T08:56:53;10.47;;;6.83;;
15114;SDS011;7658;51.456;7.622;2023-04-03T08:59:24;7.50;;;6.60;;
15114;SDS011;7658;51.456;7.622;2023-04-03T09:01:54;8.17;;;6.47;;
15114;SDS011;7658;51.456;7.622;2023-04-03T09:04:21;10.67;;;6.40;;
15114;SDS011;7658;51.456;7.622;2023-04-03T09:06:50;9.47;;;6.07;;
15114;SDS011;7658;51.456;7.622;2023-04-03T09:09:31;6.50;;;5.90;;
15114;SDS011;7658;51.456;7.622;2023-04-03T09:12:15;6.63;;;5.60;;
15114;SDS011;7658;51.456;7.622;2023-04-03T09:17:37;6.67;;;5.97;;
15114;SDS011;7658;51.456;7.622;2023-04-03T09:22:42;6.00;;;5.50;;
15114;SDS011;7658;51.456;7.622;2023-04-03T09:25:20;8.70;;;6.00;;
15114;SDS011;7658;51.456;7.622;2023-04-03T09:27:46;6.80;;;6.10;;
15114;SDS011;7658;51.456;7.622;2023-04-03T09:30:16;9.40;;;6.50;;
15114;SDS011;7658;51.456;7.622;2023-04-03T09:32:46;6.67;;;6.07;;
15114;SDS011;7658;51.456;7.622;2023-04-03T09:37:43;6.37;;;5.43;;
15114;SDS011;7658;51.456;7.622;2023-04-03T09:42:58;8.60;;;5.77;;
15114;SDS011;7658;51.456;7.622;2023-04-03T09:45:27;5.70;;;5.30;;
15114;SDS011;7658;51.456;7.622;2023-04-03T09:48:06;6.47;;;5.87;;
15114;SDS011;7658;51.456;7.622;2023-04-03T09:50:41;5.50;;;5.00;;
15114;SDS011;7658;51.456;7.622;2023-04-03T09:53:35;6.43;;;5.70;;
15114;SDS011;7658;51.456;7.622;2023-04-03T09:58:53;5.87;;;5.27;;
15114;SDS011;7658;51.456;7.622;2023-04-03T10:01:34;5.77;;;5.27;;
15114;SDS011;7658;51.456;7.622;2023-04-03T10:04:11;5.90;;;4.90;;
15114;SDS011;7658;51.456;7.622;2023-04-03T10:06:42;5.93;;;4.93;;
15114;SDS011;7658;51.456;7.622;2023-04-03T10:09:29;5.43;;;5.00;;
15114;SDS011;7658;51.456;7.622;2023-04-03T10:12:05;5.50;;;5.00;;
15114;SDS011;7658;51.456;7.622;2023-04-03T10:14:38;5.90;;;4.97;;
15114;SDS011;7658;51.456;7.622;2023-04-03T10:22:21;7.13;;;4.77;;
15114;SDS011;7658;51.456;7.622;2023-04-03T10:25:11;5.17;;;4.67;;
15114;SDS011;7658;51.456;7.622;2023-04-03T10:27:57;4.80;;;4.50;;
15114;SDS011;7658;51.456;7.622;2023-04-03T10:30:29;4.53;;;4.20;;
15114;SDS011;7658;51.456;7.622;2023-04-03T10:32:59;4.90;;;4.50;;
15114;SDS011;7658;51.456;7.622;2023-04-03T10:41:02;7.43;;;4.93;;
15114;SDS011;7658;51.456;7.622;2023-04-03T10:51:53;5.20;;;4.80;;
15114;SDS011;7658;51.456;7.622;2023-04-03T10:54:54;5.00;;;4.40;;
15114;SDS011;7658;51.456;7.622;2023-04-03T10:57:35;4.50;;;4.20;;
15114;SDS011;7658;51.456;7.622;2023-04-03T11:00:05;4.60;;;4.20;;
15114;SDS011;7658;51.456;7.622;2023-04-03T11:02:54;5.33;;;4.83;;
15114;SDS011;7658;51.456;7.622;2023-04-03T11:05:25;4.90;;;4.50;;
15114;SDS011;7658;51.456;7.622;2023-04-03T11:08:07;5.63;;;4.70;;
15114;SDS011;7658;51.456;7.622;2023-04-03T11:10:57;4.80;;;4.40;;
15114;SDS011;7658;51.456;7.622;2023-04-03T11:13:40;4.73;;;4.43;;
15114;SDS011;7658;51.456;7.622;2023-04-03T11:16:17;4.87;;;4.47;;
15114;SDS011;7658;51.456;7.622;2023-04-03T11:19:01;6.33;;;4.43;;
15114;SDS011;7658;51.456;7.622;2023-04-03T11:21:34;6.03;;;4.30;;
15114;SDS011;7658;51.456;7.622;2023-04-03T11:24:05;5.03;;;4.60;;
15114;SDS011;7658;51.456;7.622;2023-04-03T11:26:38;5.43;;;4.10;;
15114;SDS011;7658;51.456;7.622;2023-04-03T11:29:12;4.87;;;4.27;;
15114;SDS011;7658;51.456;7.622;2023-04-03T11:37:17;4.70;;;4.27;;
15114;SDS011;7658;51.456;7.622;2023-04-03T11:39:56;6.27;;;4.07;;
15114;SDS011;7658;51.456;7.622;2023-04-03T11:42:41;4.77;;;3.70;;
15114;SDS011;7658;51.456;7.622;2023-04-03T11:48:05;5.63;;;4.17;;
15114;SDS011;7658;51.456;7.622;2023-04-03T11:50:51;6.30;;;4.50;;
15114;SDS011;7658;51.456;7.622;2023-04-03T11:55:54;4.30;;;3.90;;
15114;SDS011;7658;51.456;7.622;2023-04-03T11:58:26;4.47;;;4.10;;
15114;SDS011;7658;51.456;7.622;2023-04-03T12:00:57;4.80;;;4.40;;
15114;SDS011;7658;51.456;7.622;2023-04-03T12:03:32;4.17;;;3.70;;
15114;SDS011;7658;51.456;7.622;2023-04-03T12:11:55;4.30;;;3.90;;
15114;SDS011;7658;51.456;7.622;2023-04-03T12:14:22;4.20;;;3.90;;
15114;SDS011;7658;51.456;7.622;2023-04-03T12:16:50;4.40;;;3.90;;
15114;SDS011;7658;51.456;7.622;2023-04-03T12:24:29;4.07;;;3.67;;
15114;SDS011;7658;51.456;7.622;2023-04-03T12:30:19;3.90;;;3.53;;
15114;SDS011;7658;51.456;7.622;2023-04-03T12:32:51;3.47;;;3.25;;
15114;SDS011;7658;51.456;7.622;2023-04-03T12:35:39;4.25;;;3.95;;
15114;SDS011;7658;51.456;7.622;2023-04-03T12:43:59;4.13;;;3.60;;
15114;SDS011;7658;51.456;7.622;2023-04-03T12:46:39;4.88;;;3.42;;
15114;SDS011;7658;51.456;7.622;2023-04-03T12:49:14;3.90;;;3.60;;
15114;SDS011;7658;51.456;7.622;2023-04-03T12:51:56;3.70;;;3.40;;
15114;SDS011;7658;51.456;7.622;2023-04-03T12:54:23;3.50;;;3.30;;
15114;SDS011;7658;51.456;7.622;2023-04-03T12:57:16;3.78;;;3.45;;
15114;SDS011;7658;51.456;7.622;2023-04-03T12:59:43;4.38;;;3.85;;
15114;SDS011;7658;51.456;7.622;2023-04-03T13:02:34;5.30;;;3.75;;
15114;SDS011;7658;51.456;7.622;2023-04-03T13:05:05;4.00;;;3.45;;
15114;SDS011;7658;51.456;7.622;2023-04-03T13:07:35;3.70;;;3.40;;
15114;SDS011;7658;51.456;7.622;2023-04-03T13:12:33;4.78;;;3.45;;
15114;SDS011;7658;51.456;7.622;2023-04-03T13:15:13;5.70;;;3.72;;
15114;SDS011;7658;51.456;7.622;2023-04-03T13:17:47;4.13;;;3.65;;
15114;SDS011;7658;51.456;7.622;2023-04-03T13:23:05;6.50;;;3.75;;
15114;SDS011;7658;51.456;7.622;2023-04-03T13:25:34;3.60;;;3.30;;
15114;SDS011;7658;51.456;7.622;2023-04-03T13:28:05;3.75;;;3.40;;
15114;SDS011;7658;51.456;7.622;2023-04-03T13:30:36;3.60;;;3.40;;
15114;SDS011;7658;51.456;7.622;2023-04-03T13:33:03;5.10;;;3.85;;
15114;SDS011;7658;51.456;7.622;2023-04-03T13:35:32;4.30;;;3.50;;
15114;SDS011;7658;51.456;7.622;2023-04-03T13:43:55;4.50;;;3.63;;
15114;SDS011;7658;51.456;7.622;2023-04-03T13:46:27;4.35;;;3.95;;
15114;SDS011;7658;51.456;7.622;2023-04-03T13:48:54;3.72;;;3.40;;
15114;SDS011;7658;51.456;7.622;2023-04-03T13:51:25;4.72;;;3.40;;
15114;SDS011;7658;51.456;7.622;2023-04-03T13:53:57;3.45;;;3.17;;
15114;SDS011;7658;51.456;7.622;2023-04-03T13:56:27;6.60;;;3.40;;
15114;SDS011;7658;51.456;7.622;2023-04-03T14:07:10;4.10;;;3.70;;
15114;SDS011;7658;51.456;7.622;2023-04-03T14:09:36;4.47;;;3.55;;
15114;SDS011;7658;51.456;7.622;2023-04-03T14:12:05;7.80;;;3.38;;
15114;SDS011;7658;51.456;7.622;2023-04-03T14:14:40;4.28;;;3.50;;
15114;SDS011;7658;51.456;7.622;2023-04-03T14:17:25;4.75;;;3.72;;
15114;SDS011;7658;51.456;7.622;2023-04-03T14:19:52;4.05;;;3.35;;
15114;SDS011;7658;51.456;7.622;2023-04-03T14:24:48;4.18;;;3.78;;
15114;SDS011;7658;51.456;7.622;2023-04-03T14:27:26;5.53;;;3.92;;
15114;SDS011;7658;51.456;7.622;2023-04-03T14:29:53;3.92;;;3.58;;
15114;SDS011;7658;51.456;7.622;2023-04-03T14:32:21;4.93;;;3.60;;
15114;SDS011;7658;51.456;7.622;2023-04-03T14:34:49;3.67;;;3.20;;
15114;SDS011;7658;51.456;7.622;2023-04-03T14:37:18;4.22;;;3.72;;
15114;SDS011;7658;51.456;7.622;2023-04-03T14:39:46;4.35;;;3.95;;
15114;SDS011;7658;51.456;7.622;2023-04-03T14:42:13;4.13;;;3.55;;
15114;SDS011;7658;51.456;7.622;2023-04-03T14:44:44;8.35;;;4.00;;
15114;SDS011;7658;51.456;7.622;2023-04-03T14:47:15;3.97;;;3.60;;
15114;SDS011;7658;51.456;7.622;2023-04-03T14:49:45;4.00;;;3.60;;
15114;SDS011;7658;51.456;7.622;2023-04-03T14:52:21;4.22;;;3.83;;
15114;SDS011;7658;51.456;7.622;2023-04-03T14:54:49;6.05;;;3.90;;
15114;SDS011;7658;51.456;7.622;2023-04-03T14:57:16;4.00;;;3.60;;
15114;SDS011;7658;51.456;7.622;2023-04-03T14:59:43;4.20;;;3.80;;
15114;SDS011;7658;51.456;7.622;2023-04-03T15:05:02;5.35;;;4.07;;
15114;SDS011;7658;51.456;7.622;2023-04-03T15:07:35;4.18;;;3.67;;
15114;SDS011;7658;51.456;7.622;2023-04-03T15:10:22;4.85;;;3.60;;
15114;SDS011;7658;51.456;7.622;2023-04-03T15:12:52;4.55;;;3.60;;
15114;SDS011;7658;51.456;7.622;2023-04-03T15:15:19;4.00;;;3.50;;
15114;SDS011;7658;51.456;7.622;2023-04-03T15:17:47;5.78;;;3.50;;
15114;SDS011;7658;51.456;7.622;2023-04-03T15:20:19;5.10;;;3.60;;
15114;SDS011;7658;51.456;7.622;2023-04-03T15:22:47;4.53;;;3.70;;
15114;SDS011;7658;51.456;7.622;2023-04-03T15:25:14;9.88;;;4.97;;
15114;SDS011;7658;51.456;7.622;2023-04-03T15:27:40;4.82;;;3.80;;
15114;SDS011;7658;51.456;7.622;2023-04-03T15:30:07;5.85;;;3.85;;
15114;SDS011;7658;51.456;7.622;2023-04-03T15:32:38;4.55;;;3.92;;
15114;SDS011;7658;51.456;7.622;2023-04-03T15:35:04;4.75;;;4.32;;
15114;SDS011;7658;51.456;7.622;2023-04-03T15:37:30;7.63;;;4.33;;
15114;SDS011;7658;51.456;7.622;2023-04-03T15:39:56;4.63;;;3.93;;
15114;SDS011;7658;51.456;7.622;2023-04-03T15:42:21;7.37;;;3.93;;
15114;SDS011;7658;51.456;7.622;2023-04-03T15:44:47;4.97;;;3.80;;
15114;SDS011;7658;51.456;7.622;2023-04-03T15:47:13;5.17;;;4.60;;
15114;SDS011;7658;51.456;7.622;2023-04-03T15:49:39;6.63;;;4.37;;
15114;SDS011;7658;51.456;7.622;2023-04-03T15:52:05;6.03;;;4.30;;
15114;SDS011;7658;51.456;7.622;2023-04-03T15:54:31;5.30;;;4.30;;
15114;SDS011;7658;51.456;7.622;2023-04-03T15:56:57;7.53;;;4.10;;
15114;SDS011;7658;51.456;7.622;2023-04-03T15:59:23;5.10;;;4.00;;
15114;SDS011;7658;51.456;7.622;2023-04-03T16:01:49;4.63;;;4.23;;
15114;SDS011;7658;51.456;7.622;2023-04-03T16:04:16;4.83;;;4.37;;
15114;SDS011;7658;51.456;7.622;2023-04-03T16:06:42;5.37;;;3.87;;
15114;SDS011;7658;51.456;7.622;2023-04-03T16:09:08;5.60;;;4.10;;
15114;SDS011;7658;51.456;7.622;2023-04-03T16:11:35;4.30;;;4.00;;
15114;SDS011;7658;51.456;7.622;2023-04-03T16:14:04;5.17;;;4.10;;
15114;SDS011;7658;51.456;7.622;2023-04-03T16:16:30;5.40;;;4.57;;
15114;SDS011;7658;51.456;7.622;2023-04-03T16:18:56;4.47;;;4.07;;
15114;SDS011;7658;51.456;7.622;2023-04-03T16:21:22;4.40;;;4.00;;
15114;SDS011;7658;51.456;7.622;2023-04-03T16:23:49;5.70;;;4.17;;
15114;SDS011;7658;51.456;7.622;2023-04-03T16:26:15;4.50;;;4.10;;
15114;SDS011;7658;51.456;7.622;2023-04-03T16:28:42;9.10;;;4.10;;
15114;SDS011;7658;51.456;7.622;2023-04-03T16:31:08;4.73;;;4.10;;
15114;SDS011;7658;51.456;7.622;2023-04-03T16:33:34;4.77;;;3.90;;
15114;SDS011;7658;51.456;7.622;2023-04-03T16:36:01;5.40;;;3.90;;
15114;SDS011;7658;51.456;7.622;2023-04-03T16:38:28;6.90;;;4.20;;
15114;SDS011;7658;51.456;7.622;2023-04-03T16:40:54;4.47;;;3.77;;
15114;SDS011;7658;51.456;7.622;2023-04-03T16:43:24;5.27;;;4.00;;